首页
METAR-TAF:

METAR-TAF

机场 :

地拉那特蕾莎修女國際機場

地拉那, 阿尔巴尼亚

纬度: 41-20N, 经度: 019-47E, 海拔: 89米

当前天气观测

该预报发布于33分钟前的08:20 UTC
风速2节,风向多变
温度 11°C
湿度 66%
气压 1013 hPa
能见度10公里或以上
多云层高于9200英尺

METAR: LATI 030820Z VRB02KT 9999 BKN092 11/05 Q1013 NOSIG

时间: 10:53 (08:53 UTC)

预报

该预报发布于3小时和53分钟前的05:00 UTC
预报有效从03日的 06点(UTC)到 04日的 06点(UTC)
风速5节,风向多变
能见度10公里或以上
散云层高于5000英尺
多云层高于10000英尺

TAF: LATI 030500Z 0306/0406 VRB05KT 9999 SCT050 BKN100

超过4000个机场的气象观测和天气预报(METAR&TAF报告)。

可查询的气象台以黄色和红色小点在地图上表示。

将鼠标移到小点上方,可查看气象台名称。

然后点击查看天气观测和预报。

如需切换地图:点击带黑十字的绿色按钮放大地图;点击带横线的绿色按钮缩小地图;或者点击绿色箭头查看邻近地区的地图。


METAR-TAF: